Time;durP1;ratioP1;P1;durP2;ratioP2;P2;SDS_P1;SDS_P2;PMS_P1;PMS_P2;Temp;Humidity;BMP_temperature;BMP_pressure;BME280_temperature;BME280_humidity;BME280_pressure;Samples;Min_cycle;Max_cycle;Signal;HPM_P1;HPM_P2
2022/05/17 00:00:41;;;;;;;9.40;2.85;;;23.50;54.70;;;;;;5075932;28;20054;-62
2022/05/17 00:03:07;;;;;;;6.38;2.90;;;23.50;54.90;;;;;;5086997;28;20020;-63
2022/05/17 00:05:33;;;;;;;8.45;2.80;;;23.50;54.70;;;;;;5085908;28;20493;-64
2022/05/17 00:07:59;;;;;;;6.88;2.45;;;23.40;54.90;;;;;;5068663;28;20415;-62
2022/05/17 00:10:26;;;;;;;4.85;2.40;;;23.40;54.80;;;;;;5086575;28;20042;-64
2022/05/17 00:12:53;;;;;;;7.82;2.67;;;23.40;54.70;;;;;;5088642;28;20025;-60
2022/05/17 00:15:19;;;;;;;4.57;2.38;;;23.30;54.90;;;;;;5089834;28;20107;-64
2022/05/17 00:17:46;;;;;;;7.07;2.60;;;23.30;54.80;;;;;;5081081;28;20024;-64
2022/05/17 00:20:13;;;;;;;6.20;2.53;;;23.30;54.70;;;;;;5090780;28;20034;-62
2022/05/17 00:22:39;;;;;;;5.20;2.58;;;23.40;54.60;;;;;;5090009;28;20473;-65
2022/05/17 00:25:06;;;;;;;6.53;2.60;;;23.30;54.70;;;;;;5089879;28;20077;-63
2022/05/17 00:27:32;;;;;;;7.25;2.60;;;23.30;54.60;;;;;;5082431;28;20116;-63
2022/05/17 00:29:58;;;;;;;7.13;2.88;;;23.30;54.50;;;;;;5067888;28;20028;-64
2022/05/17 00:32:23;;;;;;;6.35;2.75;;;23.30;54.40;;;;;;5089923;28;20039;-63
2022/05/17 00:34:49;;;;;;;8.05;2.50;;;23.30;54.30;;;;;;5091447;28;20027;-64
2022/05/17 00:37:16;;;;;;;4.93;2.40;;;23.30;54.30;;;;;;5065400;28;20016;-64
2022/05/17 00:39:41;;;;;;;6.25;2.38;;;23.20;54.20;;;;;;5089793;28;20078;-64
2022/05/17 00:42:07;;;;;;;5.25;2.08;;;23.20;54.10;;;;;;5068084;28;20056;-64
2022/05/17 00:44:42;;;;;;;5.38;2.28;;;23.30;53.90;;;;;;5078128;28;20431;-65
2022/05/17 00:47:32;;;;;;;7.35;2.53;;;23.40;53.80;;;;;;5089148;28;20029;-64
2022/05/17 00:50:22;;;;;;;5.18;2.17;;;23.40;53.60;;;;;;5060495;28;20033;-63
2022/05/17 00:53:05;;;;;;;4.97;2.50;;;23.40;53.70;;;;;;5071888;28;20020;-63
2022/05/17 00:55:36;;;;;;;7.70;2.50;;;23.40;53.70;;;;;;5082574;28;20016;-63
2022/05/17 00:58:25;;;;;;;7.90;2.50;;;23.40;53.60;;;;;;5081856;28;20020;-64
2022/05/17 01:01:02;;;;;;;6.40;2.55;;;23.40;53.50;;;;;;5088590;28;20058;-61
2022/05/17 01:03:37;;;;;;;5.05;2.40;;;23.40;53.40;;;;;;5083580;28;20020;-63
2022/05/17 01:06:03;;;;;;;5.20;2.33;;;23.50;53.20;;;;;;5088471;28;20031;-65
2022/05/17 01:08:29;;;;;;;6.60;2.38;;;23.50;53.10;;;;;;5087486;28;20031;-62
2022/05/17 01:10:55;;;;;;;5.40;2.20;;;23.50;52.90;;;;;;5086042;28;20031;-60
2022/05/17 01:16:09;;;;;;;6.38;2.72;;;23.50;52.90;;;;;;5088380;28;20046;-64
2022/05/17 01:18:40;;;;;;;5.97;2.33;;;23.50;52.80;;;;;;5079725;28;20032;-64
2022/05/17 01:21:06;;;;;;;7.60;2.17;;;23.50;52.60;;;;;;5084018;28;20028;-63
2022/05/17 01:23:32;;;;;;;10.27;2.97;;;23.50;52.70;;;;;;5090109;28;20024;-64
2022/05/17 01:25:58;;;;;;;7.55;2.53;;;23.50;52.90;;;;;;5080418;28;20024;-60
2022/05/17 01:28:30;;;;;;;8.20;2.40;;;23.50;52.80;;;;;;5081260;28;20107;-62
2022/05/17 01:31:03;;;;;;;7.80;2.33;;;23.50;52.80;;;;;;5080614;28;20016;-59
2022/05/17 01:33:31;;;;;;;6.78;2.33;;;23.50;52.80;;;;;;5082880;28;20541;-65
2022/05/17 01:35:57;;;;;;;7.97;2.47;;;23.50;52.90;;;;;;5086535;28;20395;-61
2022/05/17 01:38:50;;;;;;;9.75;2.40;;;23.40;53.00;;;;;;5089564;28;20432;-64
2022/05/17 01:41:15;;;;;;;6.88;2.80;;;23.40;53.10;;;;;;5089951;28;20024;-64
2022/05/17 01:43:41;;;;;;;4.60;2.15;;;23.40;53.40;;;;;;5072703;28;20139;-65
2022/05/17 01:46:11;;;;;;;6.18;2.40;;;23.40;53.70;;;;;;5087228;28;20081;-63
2022/05/17 01:48:38;;;;;;;6.13;2.47;;;23.40;53.90;;;;;;5085075;28;20464;-66
2022/05/17 01:51:06;;;;;;;5.05;2.10;;;23.30;54.10;;;;;;5089906;28;20063;-64
2022/05/17 01:53:32;;;;;;;6.07;2.40;;;23.30;53.80;;;;;;5080111;28;20028;-64
2022/05/17 01:55:58;;;;;;;5.68;2.50;;;23.30;53.70;;;;;;5087049;28;20066;-60
2022/05/17 01:58:23;;;;;;;7.50;2.47;;;23.30;54.20;;;;;;5073717;28;20337;-64
2022/05/17 02:00:49;;;;;;;6.22;2.53;;;23.20;55.00;;;;;;5089595;28;20060;-66
2022/05/17 02:03:15;;;;;;;5.32;2.78;;;23.20;55.20;;;;;;5062905;28;20435;-66
2022/05/17 02:05:40;;;;;;;7.13;2.90;;;23.20;55.70;;;;;;5086663;28;20130;-64
2022/05/17 02:08:06;;;;;;;8.23;2.55;;;23.20;55.80;;;;;;5079324;28;20338;-63
2022/05/17 02:10:32;;;;;;;5.53;2.17;;;23.10;56.00;;;;;;5090695;28;20020;-64
2022/05/17 02:12:58;;;;;;;8.02;2.50;;;23.00;56.00;;;;;;5093957;28;20421;-65
2022/05/17 02:15:25;;;;;;;5.93;2.50;;;23.10;55.90;;;;;;5064434;28;20028;-63
2022/05/17 02:17:51;;;;;;;6.43;2.55;;;23.10;55.70;;;;;;5091277;28;20457;-64
2022/05/17 02:20:18;;;;;;;10.02;2.60;;;23.10;55.60;;;;;;5073220;28;20085;-68
2022/05/17 02:22:44;;;;;;;4.05;2.33;;;23.10;55.50;;;;;;5090098;28;20028;-62
2022/05/17 02:25:10;;;;;;;6.45;2.40;;;23.00;55.40;;;;;;5087776;28;20365;-63
2022/05/17 02:27:36;;;;;;;5.60;2.40;;;23.00;55.40;;;;;;5083011;28;20036;-64
2022/05/17 02:30:03;;;;;;;6.72;2.28;;;23.00;55.20;;;;;;5089493;28;20032;-61
2022/05/17 02:32:29;;;;;;;6.90;2.42;;;23.10;55.30;;;;;;5092575;28;20020;-65
2022/05/17 02:34:55;;;;;;;7.22;2.55;;;23.00;55.10;;;;;;5071121;28;20035;-64
2022/05/17 02:37:20;;;;;;;4.32;2.35;;;23.10;55.00;;;;;;5082965;28;20150;-64
2022/05/17 02:39:46;;;;;;;5.50;2.25;;;23.00;55.00;;;;;;5082998;28;20439;-65
2022/05/17 02:42:12;;;;;;;7.07;2.40;;;23.10;55.00;;;;;;5089797;28;20053;-66
2022/05/17 02:44:38;;;;;;;5.40;2.33;;;23.10;54.90;;;;;;5091962;28;20473;-64
2022/05/17 02:47:05;;;;;;;5.15;2.28;;;23.10;54.80;;;;;;5067848;28;20035;-60
2022/05/17 02:49:30;;;;;;;6.35;2.45;;;23.00;55.00;;;;;;5085568;28;20043;-64
2022/05/17 02:52:01;;;;;;;7.45;2.30;;;23.00;55.00;;;;;;5089746;28;20028;-65
2022/05/17 02:54:26;;;;;;;6.30;2.25;;;23.00;55.00;;;;;;5088341;28;20108;-64
2022/05/17 02:56:52;;;;;;;5.88;2.20;;;23.00;54.80;;;;;;5065518;28;20230;-64
2022/05/17 02:59:19;;;;;;;6.03;2.40;;;23.10;54.70;;;;;;5087068;28;20028;-64
2022/05/17 03:01:46;;;;;;;8.60;2.55;;;23.00;55.30;;;;;;5090044;28;20024;-64
2022/05/17 03:04:13;;;;;;;8.93;2.30;;;23.00;54.90;;;;;;5085427;28;20051;-63
2022/05/17 03:06:40;;;;;;;8.68;2.70;;;23.00;54.80;;;;;;5064326;28;20024;-63
2022/05/17 03:09:05;;;;;;;7.93;2.80;;;23.00;55.00;;;;;;5079109;28;20046;-60
2022/05/17 03:11:31;;;;;;;6.20;2.50;;;22.90;55.20;;;;;;5086499;28;20117;-65
2022/05/17 03:13:57;;;;;;;6.63;2.47;;;22.90;55.20;;;;;;5081804;28;20477;-65
2022/05/17 03:16:29;;;;;;;6.13;2.30;;;22.80;55.40;;;;;;5069652;28;20031;-65
2022/05/17 03:18:54;;;;;;;6.00;2.65;;;22.80;55.80;;;;;;5080430;28;20029;-64
2022/05/17 03:21:20;;;;;;;9.18;2.80;;;22.80;56.60;;;;;;5088977;28;20032;-64
2022/05/17 03:23:46;;;;;;;10.55;3.50;;;22.60;58.20;;;;;;5088086;28;20538;-64
2022/05/17 03:26:30;;;;;;;9.48;2.70;;;22.60;60.30;;;;;;5087126;28;20034;-64
2022/05/17 03:28:58;;;;;;;8.65;3.63;;;22.50;61.10;;;;;;5086307;28;20060;-63
2022/05/17 03:31:24;;;;;;;16.90;5.20;;;22.40;62.20;;;;;;5087354;28;20142;-61
2022/05/17 03:33:50;;;;;;;9.88;3.60;;;22.20;64.10;;;;;;5089706;28;20413;-60
2022/05/17 03:36:16;;;;;;;10.70;4.05;;;22.00;64.90;;;;;;5087110;28;20107;-60
2022/05/17 03:38:42;;;;;;;7.85;3.70;;;21.70;66.60;;;;;;5091746;28;20024;-60
2022/05/17 03:41:08;;;;;;;8.77;4.03;;;21.50;67.10;;;;;;5082608;28;20097;-59
2022/05/17 03:43:34;;;;;;;10.20;4.32;;;21.40;67.40;;;;;;5067964;28;20468;-60
2022/05/17 03:45:59;;;;;;;10.55;4.30;;;21.30;68.60;;;;;;5065418;28;20024;-62
2022/05/17 03:48:27;;;;;;;14.05;4.88;;;21.10;69.30;;;;;;5069072;28;20123;-60
2022/05/17 03:50:53;;;;;;;9.23;4.75;;;20.90;70.70;;;;;;5084220;28;20458;-60
2022/05/17 03:53:19;;;;;;;14.63;5.18;;;20.70;71.20;;;;;;5090600;28;20028;-60
2022/05/17 03:55:45;;;;;;;9.05;4.20;;;20.70;71.40;;;;;;5088792;28;20028;-60
2022/05/17 03:58:11;;;;;;;14.07;4.85;;;20.70;71.50;;;;;;5089305;28;20038;-60
2022/05/17 04:00:37;;;;;;;8.90;4.65;;;20.60;71.40;;;;;;5088704;28;20032;-60
2022/05/17 04:03:03;;;;;;;7.47;4.30;;;20.70;71.50;;;;;;5084108;28;20036;-60
2022/05/17 04:05:29;;;;;;;12.10;4.85;;;20.80;71.20;;;;;;5078538;28;20095;-60
2022/05/17 04:07:55;;;;;;;10.05;4.72;;;20.90;70.80;;;;;;5085812;28;20444;-60
2022/05/17 04:10:21;;;;;;;9.57;4.28;;;21.00;70.30;;;;;;5079255;28;20040;-60
2022/05/17 04:12:47;;;;;;;12.57;4.45;;;21.00;70.10;;;;;;5082373;28;20080;-60
2022/05/17 04:15:17;;;;;;;6.88;4.20;;;21.00;70.20;;;;;;5083855;28;20103;-60
2022/05/17 04:17:43;;;;;;;12.38;4.60;;;21.10;70.20;;;;;;5083507;28;20023;-60
2022/05/17 04:20:11;;;;;;;8.35;4.00;;;21.20;69.80;;;;;;5087787;28;20035;-60
2022/05/17 04:22:40;;;;;;;9.88;4.30;;;21.30;69.20;;;;;;5086935;28;20036;-60
2022/05/17 04:25:07;;;;;;;6.82;3.97;;;21.20;69.40;;;;;;5069744;28;20036;-60
2022/05/17 04:27:32;;;;;;;5.53;3.63;;;21.20;69.20;;;;;;5085763;28;20036;-60
2022/05/17 04:29:58;;;;;;;8.82;3.90;;;21.20;69.30;;;;;;5084193;28;20492;-61
2022/05/17 04:32:24;;;;;;;8.57;3.28;;;21.10;69.90;;;;;;5083262;28;20480;-61
2022/05/17 04:34:49;;;;;;;8.98;3.85;;;21.10;69.60;;;;;;5086161;28;20024;-61
2022/05/17 04:37:15;;;;;;;5.30;3.22;;;21.00;69.70;;;;;;5084745;28;20024;-60
2022/05/17 04:39:41;;;;;;;6.72;3.40;;;21.10;69.50;;;;;;5087456;28;20051;-60
2022/05/17 04:42:07;;;;;;;7.43;3.60;;;21.10;69.40;;;;;;5071333;28;20110;-60
2022/05/17 04:44:33;;;;;;;6.60;3.55;;;21.10;69.70;;;;;;5073732;28;20039;-60
2022/05/17 04:46:58;;;;;;;10.75;3.67;;;21.00;69.90;;;;;;5088903;28;20028;-59
2022/05/17 04:49:24;;;;;;;6.75;3.47;;;21.00;70.50;;;;;;5086230;28;20454;-60
2022/05/17 04:51:52;;;;;;;6.13;3.10;;;21.00;70.30;;;;;;5062336;28;20028;-60
2022/05/17 04:54:18;;;;;;;8.15;3.97;;;21.00;70.00;;;;;;5066584;28;20382;-60
2022/05/17 04:56:44;;;;;;;7.40;3.33;;;21.10;70.10;;;;;;5087597;28;20032;-60
2022/05/17 04:59:10;;;;;;;7.45;3.75;;;21.10;70.00;;;;;;5062994;28;20016;-60
2022/05/17 05:01:36;;;;;;;8.75;3.55;;;21.10;69.70;;;;;;5072359;28;20392;-60
2022/05/17 05:04:02;;;;;;;6.57;3.28;;;21.10;69.50;;;;;;5062327;28;20085;-60
2022/05/17 05:06:28;;;;;;;8.13;3.40;;;21.00;69.80;;;;;;5090824;28;20024;-60
2022/05/17 05:08:55;;;;;;;10.50;3.53;;;20.90;70.40;;;;;;5057972;28;20031;-61
2022/05/17 05:11:21;;;;;;;6.63;3.47;;;20.80;70.90;;;;;;5062587;28;20035;-61
2022/05/17 05:13:47;;;;;;;9.63;3.75;;;20.80;71.40;;;;;;5085290;28;20028;-60
2022/05/17 05:16:14;;;;;;;5.90;3.00;;;20.70;71.50;;;;;;5078626;28;20077;-67
2022/05/17 05:18:59;;;;;;;10.25;3.60;;;20.60;71.70;;;;;;5067555;28;20074;-61
2022/05/17 05:21:24;;;;;;;8.80;3.80;;;20.60;71.70;;;;;;5086599;28;20062;-60
2022/05/17 05:23:50;;;;;;;8.00;3.38;;;20.70;71.70;;;;;;5093379;28;20438;-59
2022/05/17 05:26:17;;;;;;;9.32;3.35;;;20.70;71.30;;;;;;5070878;28;20024;-60
2022/05/17 05:28:44;;;;;;;5.60;3.58;;;20.80;71.20;;;;;;5085625;28;20024;-61
2022/05/17 05:31:12;;;;;;;9.23;4.43;;;20.80;71.20;;;;;;5091449;28;20020;-60
2022/05/17 05:33:39;;;;;;;9.55;4.18;;;20.70;71.40;;;;;;5069475;28;20028;-61
2022/05/17 05:36:05;;;;;;;10.57;5.10;;;20.80;71.20;;;;;;5089034;28;20099;-60
2022/05/17 05:38:31;;;;;;;13.48;4.78;;;20.70;72.40;;;;;;5086330;28;20047;-60
2022/05/17 05:40:57;;;;;;;15.38;5.63;;;20.50;73.90;;;;;;5075313;28;20024;-61
2022/05/17 05:43:23;;;;;;;12.82;5.20;;;20.30;75.20;;;;;;5089365;28;20497;-61
2022/05/17 05:45:48;;;;;;;10.45;5.40;;;20.20;75.80;;;;;;5068152;28;20065;-61
2022/05/17 05:48:15;;;;;;;9.40;4.82;;;20.30;75.70;;;;;;5073347;28;20472;-61
2022/05/17 05:50:40;;;;;;;9.38;5.13;;;20.30;75.60;;;;;;5090149;28;20035;-61
2022/05/17 05:53:11;;;;;;;11.38;5.32;;;20.40;75.30;;;;;;5090084;28;20016;-62
2022/05/17 05:55:38;;;;;;;13.55;4.93;;;20.50;75.10;;;;;;5094109;28;20027;-61
2022/05/17 05:58:05;;;;;;;11.80;5.30;;;20.60;74.60;;;;;;5085814;28;20401;-61
2022/05/17 06:00:31;;;;;;;7.70;5.35;;;20.70;74.30;;;;;;5090877;28;20024;-61
2022/05/17 06:02:57;;;;;;;11.50;4.50;;;20.80;73.80;;;;;;5089719;28;20026;-60
2022/05/17 06:05:24;;;;;;;8.60;4.32;;;20.90;73.40;;;;;;5073323;28;20020;-60
2022/05/17 06:07:50;;;;;;;11.82;4.63;;;21.00;72.90;;;;;;5093471;28;20050;-60
2022/05/17 06:10:17;;;;;;;13.88;4.18;;;21.00;72.70;;;;;;5074153;28;20016;-61
2022/05/17 06:12:43;;;;;;;11.50;4.85;;;21.20;72.00;;;;;;5092659;28;20058;-61
2022/05/17 06:15:10;;;;;;;11.63;4.43;;;21.30;71.60;;;;;;5090341;28;20024;-60
2022/05/17 06:17:37;;;;;;;8.23;4.90;;;21.40;71.40;;;;;;5086797;28;20510;-61
2022/05/17 06:20:05;;;;;;;9.35;4.55;;;21.30;71.20;;;;;;5073488;28;20028;-62
2022/05/17 06:22:30;;;;;;;11.50;5.45;;;21.40;71.30;;;;;;5073182;28;20024;-62
2022/05/17 06:24:56;;;;;;;11.65;4.65;;;21.50;70.60;;;;;;5091195;28;20027;-61
2022/05/17 06:27:22;;;;;;;13.20;5.13;;;21.50;70.30;;;;;;5086285;28;20489;-60
2022/05/17 06:29:48;;;;;;;10.40;4.60;;;21.50;70.50;;;;;;5052262;28;20485;-61
2022/05/17 06:32:15;;;;;;;10.50;4.72;;;21.60;70.40;;;;;;5088422;28;20133;-65
2022/05/17 06:34:42;;;;;;;8.80;4.97;;;21.70;70.20;;;;;;5093517;28;20012;-61
2022/05/17 06:37:08;;;;;;;8.55;5.10;;;21.70;70.00;;;;;;5093162;28;20028;-61
2022/05/17 06:39:35;;;;;;;5.88;4.75;;;22.00;69.50;;;;;;5089666;28;20426;-61
2022/05/17 06:42:02;;;;;;;9.55;4.88;;;22.00;69.20;;;;;;5091839;28;20112;-62
2022/05/17 06:44:29;;;;;;;7.05;4.97;;;22.20;68.60;;;;;;5074391;28;20040;-61
2022/05/17 06:46:56;;;;;;;8.88;5.30;;;22.20;68.30;;;;;;5065563;28;20115;-62
2022/05/17 06:49:23;;;;;;;12.55;5.82;;;22.40;68.10;;;;;;5073592;28;20042;-60
2022/05/17 06:51:49;;;;;;;9.43;5.63;;;22.70;67.00;;;;;;5078144;28;20138;-61
2022/05/17 06:54:15;;;;;;;8.55;5.57;;;22.90;66.50;;;;;;5091172;28;20028;-62
2022/05/17 06:56:40;;;;;;;7.22;4.65;;;23.00;65.40;;;;;;5090466;28;20028;-61
2022/05/17 06:59:07;;;;;;;9.95;5.25;;;23.00;64.90;;;;;;5077160;28;20481;-61
2022/05/17 07:01:33;;;;;;;9.40;5.40;;;22.90;65.30;;;;;;5082165;28;20070;-60
2022/05/17 07:03:59;;;;;;;11.60;6.18;;;22.80;65.30;;;;;;5090542;28;20020;-62
2022/05/17 07:06:26;;;;;;;13.35;5.90;;;22.90;65.30;;;;;;5082081;28;20024;-59
2022/05/17 07:08:52;;;;;;;8.00;5.75;;;22.70;65.50;;;;;;5061679;28;20054;-61
2022/05/17 07:14:01;;;;;;;;;;;22.50;65.90;;;;;;5087216;28;20059;-62
2022/05/17 07:16:27;;;;;;;13.50;5.82;;;22.60;66.20;;;;;;5092182;28;19947;-61
2022/05/17 07:18:53;;;;;;;12.85;6.70;;;22.70;65.90;;;;;;5080044;28;20035;-62
2022/05/17 07:21:19;;;;;;;10.32;6.50;;;22.50;65.80;;;;;;5069035;28;20043;-62
2022/05/17 07:23:44;;;;;;;10.18;6.13;;;22.60;65.90;;;;;;5067131;28;20025;-62
2022/05/17 07:26:12;;;;;;;10.02;6.68;;;22.90;65.70;;;;;;5086571;28;20077;-62
2022/05/17 07:28:48;;;;;;;11.32;4.93;;;23.50;65.20;;;;;;5084899;28;20043;-61
2022/05/17 07:31:14;;;;;;;7.70;5.00;;;24.50;61.80;;;;;;5090024;28;20081;-60
2022/05/17 07:33:40;;;;;;;9.40;4.80;;;25.60;60.20;;;;;;5084093;28;20549;-62
2022/05/17 07:36:08;;;;;;;7.70;4.82;;;27.20;56.20;;;;;;5087204;28;20378;-61
2022/05/17 07:38:34;;;;;;;8.60;5.05;;;27.50;52.30;;;;;;5086704;28;20028;-62
2022/05/17 07:41:01;;;;;;;7.97;4.97;;;27.40;52.60;;;;;;5069594;28;20056;-61
2022/05/17 07:43:27;;;;;;;12.32;5.10;;;26.80;52.70;;;;;;5086908;28;20045;-60
2022/05/17 07:45:52;;;;;;;11.20;5.47;;;26.50;53.90;;;;;;5088027;28;20473;-62
2022/05/17 07:48:24;;;;;;;13.45;5.75;;;26.20;54.40;;;;;;5089626;28;20056;-63
2022/05/17 07:50:50;;;;;;;12.27;5.60;;;26.50;54.60;;;;;;5067670;28;20031;-61
2022/05/17 07:53:19;;;;;;;6.40;5.05;;;26.80;52.80;;;;;;5085079;28;20025;-63
2022/05/17 07:55:46;;;;;;;13.35;5.72;;;26.60;53.20;;;;;;5082131;28;20288;-61
2022/05/17 07:58:14;;;;;;;22.05;6.63;;;26.50;53.50;;;;;;5081931;28;20036;-62
2022/05/17 08:00:41;;;;;;;11.85;6.20;;;26.30;53.40;;;;;;5089302;28;20058;-62
2022/05/17 08:03:10;;;;;;;13.20;5.85;;;25.90;54.40;;;;;;5081528;28;20020;-63
2022/05/17 08:05:36;;;;;;;16.02;6.57;;;25.60;55.10;;;;;;5074534;28;20481;-63
2022/05/17 08:08:03;;;;;;;10.32;6.20;;;25.50;55.80;;;;;;5084056;28;20020;-63
2022/05/17 08:10:29;;;;;;;9.15;6.25;;;25.10;56.00;;;;;;5089788;28;20055;-61
2022/05/17 08:12:55;;;;;;;9.82;6.00;;;24.80;57.00;;;;;;5091399;28;20020;-64
2022/05/17 08:15:23;;;;;;;12.13;5.68;;;24.90;57.00;;;;;;5091792;28;20028;-63
2022/05/17 08:17:49;;;;;;;11.93;6.07;;;24.80;57.20;;;;;;5083806;28;20257;-63
2022/05/17 08:20:15;;;;;;;13.95;5.68;;;24.50;57.60;;;;;;5072161;28;20389;-63
2022/05/17 08:22:43;;;;;;;13.93;6.15;;;24.30;58.20;;;;;;5090310;28;20039;-62
2022/05/17 08:27:56;;;;;;;16.88;6.00;;;24.40;58.20;;;;;;5090666;28;20035;-64
2022/05/17 08:30:24;;;;;;;10.65;5.70;;;24.20;58.40;;;;;;5089098;28;20118;-63
2022/05/17 08:35:44;;;;;;;13.95;5.38;;;24.40;58.20;;;;;;5085823;28;20054;-63
2022/05/17 08:38:14;;;;;;;10.38;4.82;;;24.70;57.60;;;;;;5072510;28;20433;-62
2022/05/17 08:41:10;;;;;;;9.18;4.63;;;24.90;56.90;;;;;;5058276;28;20020;-62
2022/05/17 08:43:56;;;;;;;6.78;4.55;;;25.40;56.20;;;;;;4993285;28;20035;-62
2022/05/17 08:46:26;;;;;;;10.82;4.85;;;25.30;55.40;;;;;;5086119;28;20095;-64
2022/05/17 08:48:57;;;;;;;9.93;4.60;;;24.70;56.30;;;;;;5080647;28;20504;-62
2022/05/17 08:51:41;;;;;;;7.55;4.22;;;24.60;57.00;;;;;;5056162;28;20028;-62
2022/05/17 08:54:09;;;;;;;13.50;5.35;;;24.60;56.50;;;;;;5081158;28;20534;-63
2022/05/17 08:56:38;;;;;;;5.95;3.75;;;24.60;56.40;;;;;;5079040;28;20024;-62
2022/05/17 08:59:06;;;;;;;8.52;4.35;;;24.40;57.10;;;;;;5080892;28;20034;-64
2022/05/17 09:01:43;;;;;;;11.73;3.95;;;24.00;57.90;;;;;;5089426;28;20028;-63
2022/05/17 09:04:30;;;;;;;15.60;4.85;;;24.00;58.20;;;;;;5068949;28;20039;-63
2022/05/17 09:07:05;;;;;;;15.32;4.50;;;24.30;57.80;;;;;;5072145;28;20032;-64
2022/05/17 09:09:44;;;;;;;13.65;4.43;;;24.80;57.10;;;;;;5085006;28;20032;-62
2022/05/17 09:12:29;;;;;;;13.45;4.25;;;25.70;55.20;;;;;;5069306;28;20028;-63
2022/05/17 09:14:59;;;;;;;18.02;5.22;;;26.60;52.40;;;;;;5071858;28;20020;-62
2022/05/17 09:17:26;;;;;;;14.15;4.22;;;27.10;51.10;;;;;;5081343;28;20024;-63
2022/05/17 09:19:52;;;;;;;13.85;4.05;;;27.20;50.40;;;;;;5071481;28;20043;-62
2022/05/17 09:22:19;;;;;;;11.70;4.30;;;27.10;50.00;;;;;;5081777;28;20028;-63
2022/05/17 09:24:50;;;;;;;8.90;4.13;;;27.00;49.90;;;;;;5089941;28;20031;-62
2022/05/17 09:27:38;;;;;;;19.88;5.53;;;27.00;50.30;;;;;;5090785;28;20147;-62
2022/05/17 09:30:11;;;;;;;11.48;4.25;;;27.00;50.00;;;;;;5079171;28;20017;-62
2022/05/17 09:32:44;;;;;;;7.30;3.90;;;26.80;50.00;;;;;;5061801;28;20023;-62
2022/05/17 09:35:21;;;;;;;11.00;4.63;;;26.30;50.90;;;;;;5062622;28;20027;-63
2022/05/17 09:37:52;;;;;;;7.10;3.78;;;26.30;51.60;;;;;;5064566;28;20474;-62
2022/05/17 09:40:27;;;;;;;9.75;4.25;;;26.50;51.10;;;;;;5087140;28;20116;-64
2022/05/17 09:43:02;;;;;;;6.40;4.18;;;26.70;50.80;;;;;;5089652;28;20044;-63
2022/05/17 09:45:50;;;;;;;7.95;4.20;;;26.90;50.40;;;;;;5071602;28;20042;-63
2022/05/17 09:54:28;;;;;;;8.27;5.05;;;26.80;50.40;;;;;;5083375;28;20535;-63
2022/05/17 09:56:53;;;;;;;14.52;5.25;;;26.50;51.20;;;;;;5057356;28;20142;-63
2022/05/17 09:59:22;;;;;;;10.98;5.70;;;26.00;52.00;;;;;;5077939;28;20074;-63
2022/05/17 10:01:48;;;;;;;10.55;5.47;;;25.60;53.40;;;;;;5071311;28;20044;-63
2022/05/17 10:04:20;;;;;;;11.98;6.22;;;25.40;54.80;;;;;;5078971;28;20112;-63
2022/05/17 10:06:51;;;;;;;13.05;7.25;;;24.90;57.20;;;;;;5074880;28;20093;-63
2022/05/17 10:09:32;;;;;;;10.68;6.70;;;24.50;59.90;;;;;;5092488;28;20128;-63
2022/05/17 10:12:11;;;;;;;10.43;7.65;;;24.30;61.00;;;;;;5072475;28;20020;-61
2022/05/17 10:14:49;;;;;;;8.38;6.60;;;24.10;61.00;;;;;;5093398;28;20035;-63
2022/05/17 10:17:27;;;;;;;12.95;6.20;;;24.00;61.50;;;;;;5073316;28;20099;-63
2022/05/17 10:19:58;;;;;;;11.70;6.35;;;24.10;61.20;;;;;;5091644;28;20135;-63
2022/05/17 10:22:27;;;;;;;9.25;5.78;;;24.20;60.60;;;;;;5092310;28;20119;-62
2022/05/17 10:25:04;;;;;;;7.28;5.25;;;24.40;60.50;;;;;;5074867;28;20040;-62
2022/05/17 10:27:40;;;;;;;7.80;4.80;;;24.80;59.20;;;;;;5067043;28;20043;-62
2022/05/17 10:30:32;;;;;;;11.05;4.97;;;25.00;58.30;;;;;;5093487;28;20020;-63
2022/05/17 10:33:05;;;;;;;9.25;6.05;;;25.30;58.00;;;;;;5070570;28;20024;-62
2022/05/17 10:35:44;;;;;;;7.30;5.07;;;25.50;57.10;;;;;;5072983;28;20017;-64
2022/05/17 10:38:26;;;;;;;10.07;6.00;;;25.50;56.80;;;;;;5093517;28;20141;-63
2022/05/17 10:40:54;;;;;;;11.18;6.05;;;25.40;56.70;;;;;;5092252;28;20055;-63
2022/05/17 10:43:22;;;;;;;10.50;6.57;;;25.10;57.20;;;;;;5092820;28;20040;-63
2022/05/17 10:46:00;;;;;;;11.40;6.70;;;25.00;57.80;;;;;;5092589;28;20027;-63
2022/05/17 10:48:48;;;;;;;10.27;5.88;;;24.80;58.50;;;;;;5075058;28;20381;-63
2022/05/17 10:51:14;;;;;;;9.48;5.38;;;24.70;58.80;;;;;;5062639;28;20320;-63
2022/05/17 10:53:49;;;;;;;10.75;6.80;;;24.80;58.80;;;;;;5067412;28;20488;-62
2022/05/17 10:56:20;;;;;;;8.88;5.65;;;24.80;58.40;;;;;;5093443;28;20031;-63
2022/05/17 10:59:12;;;;;;;11.52;5.13;;;24.90;58.20;;;;;;5081638;28;20111;-63
2022/05/17 11:01:59;;;;;;;10.25;5.70;;;24.90;58.30;;;;;;5092390;28;20043;-63
2022/05/17 11:04:59;;;;;;;9.15;5.80;;;24.60;59.90;;;;;;5089864;28;20043;-63
2022/05/17 11:08:07;;;;;;;10.13;6.28;;;24.00;61.50;;;;;;5092530;28;20028;-62
2022/05/17 11:10:42;;;;;;;13.50;6.07;;;23.50;63.90;;;;;;5088726;28;20073;-63
2022/05/17 11:13:08;;;;;;;10.55;6.00;;;23.20;65.20;;;;;;5091468;28;20074;-63
2022/05/17 11:15:38;;;;;;;8.68;6.32;;;23.10;65.80;;;;;;5073950;28;20028;-63
2022/05/17 11:18:33;;;;;;;15.25;6.70;;;22.80;67.00;;;;;;5072267;28;20023;-63
2022/05/17 11:21:07;;;;;;;13.73;6.35;;;22.70;68.00;;;;;;5091620;28;20553;-63
2022/05/17 11:23:50;;;;;;;10.02;6.25;;;22.60;68.30;;;;;;5092325;28;20016;-63
2022/05/17 11:26:41;;;;;;;10.23;6.30;;;22.50;68.50;;;;;;5072939;28;20411;-62
2022/05/17 11:29:29;;;;;;;10.48;6.43;;;22.40;69.10;;;;;;5087105;28;20108;-63
2022/05/17 11:31:58;;;;;;;11.32;7.28;;;22.30;70.10;;;;;;5073549;28;20017;-63
2022/05/17 11:34:26;;;;;;;12.73;6.85;;;22.40;70.10;;;;;;5080051;28;20051;-64
2022/05/17 11:36:55;;;;;;;10.77;6.65;;;22.40;69.90;;;;;;5091439;28;20145;-63
2022/05/17 11:39:39;;;;;;;14.73;6.90;;;22.60;69.90;;;;;;5086458;28;20016;-63
2022/05/17 11:42:25;;;;;;;14.43;6.47;;;22.80;69.70;;;;;;5087904;28;20024;-62
2022/05/17 11:44:51;;;;;;;14.25;7.15;;;23.20;68.40;;;;;;5065761;28;20164;-63
2022/05/17 11:47:31;;;;;;;20.20;6.82;;;23.80;66.80;;;;;;5073372;28;20032;-63
2022/05/17 11:50:15;;;;;;;12.07;7.18;;;24.20;65.60;;;;;;5064265;28;20099;-65
2022/05/17 11:52:42;;;;;;;;;;;24.40;64.60;;;;;;5087307;28;20468;-63
2022/05/17 11:55:11;;;;;;;11.52;6.97;;;24.80;63.70;;;;;;5084181;28;19927;-63
2022/05/17 11:57:38;;;;;;;12.60;6.85;;;24.90;62.80;;;;;;5083911;28;20085;-63
2022/05/17 12:00:34;;;;;;;11.95;7.30;;;25.00;62.10;;;;;;5058131;28;20028;-65
2022/05/17 12:03:02;;;;;;;15.15;6.45;;;24.80;61.60;;;;;;5065402;28;20068;-63
2022/05/17 12:05:37;;;;;;;8.55;6.32;;;24.40;62.40;;;;;;5067799;28;20032;-64
2022/05/17 12:08:32;;;;;;;10.82;6.47;;;24.30;62.90;;;;;;5085391;28;20461;-63
2022/05/17 12:11:13;;;;;;;14.68;6.68;;;24.40;63.70;;;;;;5066056;28;20032;-64
2022/05/17 12:13:44;;;;;;;8.70;5.60;;;24.60;63.20;;;;;;5090579;28;20469;-61
2022/05/17 12:16:32;;;;;;;11.32;6.82;;;24.40;62.90;;;;;;5087414;28;20047;-63
2022/05/17 12:19:13;;;;;;;10.93;6.95;;;24.20;63.70;;;;;;5086748;28;20700;-64
2022/05/17 12:22:06;;;;;;;14.55;7.00;;;24.10;64.00;;;;;;5061094;28;20027;-63
2022/05/17 12:24:40;;;;;;;13.35;6.93;;;24.10;64.60;;;;;;5089422;28;20093;-64
2022/05/17 12:27:14;;;;;;;10.38;6.93;;;24.00;65.10;;;;;;5068476;28;20138;-63
2022/05/17 12:32:50;;;;;;;14.63;6.38;;;24.00;65.30;;;;;;5086592;28;20515;-64
2022/05/17 12:35:24;;;;;;;18.80;7.85;;;24.10;64.80;;;;;;5086947;28;20020;-63
2022/05/17 12:37:50;;;;;;;17.67;7.63;;;24.10;64.90;;;;;;5081159;28;20020;-62
2022/05/17 12:43:14;;;;;;;8.80;7.30;;;24.60;63.50;;;;;;5090001;28;20051;-62
2022/05/17 12:45:45;;;;;;;10.27;7.25;;;24.60;62.90;;;;;;5083268;28;20089;-63
2022/05/17 12:48:16;;;;;;;9.73;6.90;;;24.50;62.80;;;;;;5085806;28;20024;-63
2022/05/17 12:50:41;;;;;;;9.05;6.47;;;24.50;62.60;;;;;;5082459;28;20032;-65
2022/05/17 12:53:16;;;;;;;8.40;5.85;;;24.50;62.60;;;;;;5075545;28;20436;-64
2022/05/17 12:56:07;;;;;;;9.20;6.20;;;24.40;63.00;;;;;;5069468;28;20473;-63
2022/05/17 12:58:46;;;;;;;14.48;6.35;;;24.70;62.10;;;;;;5070116;28;20469;-62
2022/05/17 13:01:13;;;;;;;10.35;5.68;;;24.80;61.90;;;;;;5063348;28;20028;-63
2022/05/17 13:03:44;;;;;;;9.82;6.07;;;24.90;61.30;;;;;;5085333;28;20048;-62
2022/05/17 13:06:10;;;;;;;11.05;6.35;;;24.90;61.10;;;;;;5086624;28;20024;-61
2022/05/17 13:08:38;;;;;;;11.95;6.93;;;25.00;60.90;;;;;;5086905;28;20039;-63
2022/05/17 13:11:07;;;;;;;13.15;6.45;;;25.00;60.30;;;;;;5058443;28;20016;-63
2022/05/17 13:13:36;;;;;;;7.38;5.72;;;25.00;60.40;;;;;;5063445;28;20422;-61
2022/05/17 13:16:11;;;;;;;12.52;6.28;;;25.00;61.00;;;;;;5079084;28;20032;-64
2022/05/17 13:18:47;;;;;;;11.27;6.65;;;25.10;60.20;;;;;;5089241;28;20020;-64
2022/05/17 13:21:28;;;;;;;11.10;6.35;;;25.10;59.60;;;;;;5078372;28;20024;-61